Time;durP1;ratioP1;P1;durP2;ratioP2;P2;SDS_P1;SDS_P2;PMS_P1;PMS_P2;Temp;Humidity;BMP_temperature;BMP_pressure;BME280_temperature;BME280_humidity;BME280_pressure;Samples;Min_cycle;Max_cycle;Signal;HPM_P1;HPM_P2
2023/03/12 00:01:39;;;;;;;5.20;3.97;;;;;;;;;;4769936;30;20121;-89
2023/03/12 00:04:05;;;;;;;6.97;3.83;;;;;;;;;;4741065;30;20391;-88
2023/03/12 00:06:31;;;;;;;7.97;4.72;;;;;;;;;;4755084;30;20063;-88
2023/03/12 00:09:00;;;;;;;9.93;5.10;;;;;;;;;;4740435;30;20506;-89
2023/03/12 00:11:27;;;;;;;8.13;4.93;;;;;;;;;;4755521;30;20477;-91
2023/03/12 00:13:54;;;;;;;6.05;4.70;;;;;;;;;;4755697;30;20044;-89
2023/03/12 00:16:21;;;;;;;9.90;3.80;;;;;;;;;;4755262;30;20055;-90
2023/03/12 00:18:51;;;;;;;5.60;3.70;;;;;;;;;;4755214;30;20044;-89
2023/03/12 00:21:17;;;;;;;8.65;4.78;;;;;;;;;;4754910;30;20121;-89
2023/03/12 00:23:43;;;;;;;7.15;4.05;;;;;;;;;;4741195;30;20058;-90
2023/03/12 00:26:11;;;;;;;6.53;4.18;;;;;;;;;;4755309;30;20147;-90
2023/03/12 00:28:37;;;;;;;6.00;4.22;;;;;;;;;;4754799;30;20454;-89
2023/03/12 00:31:12;;;;;;;7.10;4.25;;;;;;;;;;4755140;30;20112;-89
2023/03/12 00:33:38;;;;;;;6.53;4.07;;;;;;;;;;4754569;30;20062;-89
2023/03/12 00:36:04;;;;;;;9.52;4.63;;;;;;;;;;4754835;30;20060;-86
2023/03/12 00:38:30;;;;;;;11.40;4.32;;;;;;;;;;4754708;30;20091;-89
2023/03/12 00:40:56;;;;;;;8.30;4.68;;;;;;;;;;4754731;30;20059;-89
2023/03/12 00:43:22;;;;;;;8.98;4.65;;;;;;;;;;4740202;30;20055;-89
2023/03/12 00:45:48;;;;;;;13.55;5.10;;;;;;;;;;4754592;30;20105;-89
2023/03/12 00:48:14;;;;;;;7.47;5.45;;;;;;;;;;4739689;30;20058;-89
2023/03/12 00:50:40;;;;;;;7.18;4.97;;;;;;;;;;4739787;30;20052;-88
2023/03/12 00:53:06;;;;;;;7.45;4.35;;;;;;;;;;4754250;30;20059;-88
2023/03/12 00:55:33;;;;;;;5.32;4.35;;;;;;;;;;4754213;30;20510;-89
2023/03/12 00:57:59;;;;;;;12.43;4.32;;;;;;;;;;4739647;30;20063;-88
2023/03/12 01:00:25;;;;;;;5.93;3.83;;;;;;;;;;4754477;30;20139;-88
2023/03/12 01:02:51;;;;;;;7.72;4.25;;;;;;;;;;4753673;30;20564;-88
2023/03/12 01:05:17;;;;;;;6.45;4.75;;;;;;;;;;4754094;30;20062;-88
2023/03/12 01:07:43;;;;;;;9.52;4.40;;;;;;;;;;4754293;30;20146;-88
2023/03/12 01:10:11;;;;;;;9.05;4.75;;;;;;;;;;4754115;30;20165;-88
2023/03/12 01:12:37;;;;;;;11.05;4.30;;;;;;;;;;4754329;30;20417;-88
2023/03/12 01:15:03;;;;;;;7.60;4.05;;;;;;;;;;4739845;30;20063;-88
2023/03/12 01:17:29;;;;;;;4.57;4.15;;;;;;;;;;4739680;30;20064;-88
2023/03/12 01:19:55;;;;;;;10.35;4.82;;;;;;;;;;4739130;30;20063;-88
2023/03/12 01:22:22;;;;;;;6.15;4.60;;;;;;;;;;4739450;30;20059;-88
2023/03/12 01:24:48;;;;;;;9.55;6.28;;;;;;;;;;4754436;30;20051;-88
2023/03/12 01:27:14;;;;;;;8.43;5.38;;;;;;;;;;4739357;30;20059;-88
2023/03/12 01:29:40;;;;;;;7.38;5.28;;;;;;;;;;4754451;30;20463;-88
2023/03/12 01:32:06;;;;;;;9.30;5.55;;;;;;;;;;4754089;30;20060;-88
2023/03/12 01:34:34;;;;;;;8.57;5.57;;;;;;;;;;4739489;30;20048;-88
2023/03/12 01:37:00;;;;;;;5.95;4.97;;;;;;;;;;4754457;30;20403;-88
2023/03/12 01:39:27;;;;;;;9.93;4.93;;;;;;;;;;4753983;30;20055;-88
2023/03/12 01:41:55;;;;;;;9.30;5.10;;;;;;;;;;4753700;30;20521;-88
2023/03/12 01:44:21;;;;;;;9.70;4.55;;;;;;;;;;4754190;30;20064;-88
2023/03/12 01:46:47;;;;;;;7.32;4.80;;;;;;;;;;4754122;30;20059;-88
2023/03/12 01:49:16;;;;;;;7.10;4.53;;;;;;;;;;4753712;30;20091;-88
2023/03/12 01:52:02;;;;;;;6.97;4.38;;;0.00;99.90;;;;;;4754393;30;20063;-88
2023/03/12 01:54:34;;;;;;;5.40;4.50;;;;;;;;;;4739230;30;20051;-88
2023/03/12 01:57:02;;;;;;;9.98;4.50;;;;;;;;;;4753735;30;20549;-88
2023/03/12 01:59:30;;;;;;;14.50;5.25;;;;;;;;;;4753544;30;20117;-88
2023/03/12 02:01:56;;;;;;;8.80;5.50;;;;;;;;;;4753529;30;20060;-88
2023/03/12 02:04:24;;;;;;;12.45;4.40;;;;;;;;;;4739392;30;20055;-88
2023/03/12 02:06:56;;;;;;;6.43;4.40;;;;;;;;;;4753722;30;20439;-88
2023/03/12 02:09:23;;;;;;;7.00;4.40;;;;;;;;;;4753699;30;20059;-88
2023/03/12 02:11:49;;;;;;;11.07;4.88;;;;;;;;;;4754117;30;20051;-88
2023/03/12 02:14:15;;;;;;;6.43;4.55;;;;;;;;;;4740855;30;20513;-88
2023/03/12 02:16:41;;;;;;;6.90;4.43;;;;;;;;;;4757131;30;20055;-88
2023/03/12 02:19:14;;;;;;;7.22;4.85;;;;;;;;;;4757152;30;20072;-88
2023/03/12 02:21:40;;;;;;;9.68;4.28;;;;;;;;;;4756879;30;20502;-88
2023/03/12 02:24:12;;;;;;;16.60;5.43;;;;;;;;;;4742528;30;20472;-89
2023/03/12 02:26:39;;;;;;;8.02;5.03;;;;;;;;;;4757167;30;20047;-88
2023/03/12 02:29:05;;;;;;;9.57;4.88;;;;;;;;;;4756756;30;20147;-88
2023/03/12 02:31:34;;;;;;;13.13;5.85;;;;;;;;;;4756731;30;20060;-88
2023/03/12 02:34:00;;;;;;;11.90;6.15;;;;;;;;;;4756590;30;20048;-88
2023/03/12 02:36:27;;;;;;;9.15;5.97;;;;;;;;;;4756866;30;20427;-88
2023/03/12 02:38:54;;;;;;;6.00;3.97;;;;;;;;;;4756408;30;20059;-88
2023/03/12 02:41:31;;;;;;;17.02;5.53;;;;;;;;;;4756879;30;20478;-88
2023/03/12 02:44:03;;;;;;;7.07;4.60;;;;;;;;;;4756812;30;20051;-89
2023/03/12 02:46:35;;;;;;;7.50;5.50;;;;;;;;;;4756782;30;20063;-88
2023/03/12 02:49:01;;;;;;;7.63;4.95;;;;;;;;;;4756296;30;20048;-88
2023/03/12 02:51:27;;;;;;;6.03;4.50;;;;;;;;;;4741750;30;20455;-88
2023/03/12 02:53:53;;;;;;;8.15;4.47;;;;;;;;;;4756492;30;20435;-88
2023/03/12 02:56:21;;;;;;;6.82;4.68;;;;;;;;;;4756718;30;20467;-88
2023/03/12 02:58:47;;;;;;;5.90;3.97;;;;;;;;;;4756422;30;20051;-88
2023/03/12 03:01:13;;;;;;;11.98;4.38;;;;;;;;;;4741493;30;20535;-88
2023/03/12 03:03:39;;;;;;;11.73;4.68;;;;;;;;;;4756162;30;20052;-88
2023/03/12 03:06:05;;;;;;;6.13;3.88;;;;;;;;;;4741411;30;20052;-88
2023/03/12 03:08:31;;;;;;;7.40;3.78;;;;;;;;;;4741424;30;20059;-88
2023/03/12 03:10:57;;;;;;;6.07;3.53;;;;;;;;;;4755933;30;20060;-88
2023/03/12 03:13:24;;;;;;;5.82;4.00;;;;;;;;;;4755922;30;20059;-88
2023/03/12 03:15:50;;;;;;;4.60;3.05;;;;;;;;;;4756164;30;20146;-88
2023/03/12 03:18:16;;;;;;;5.50;4.22;;;;;;;;;;4755711;30;20060;-88
2023/03/12 03:20:43;;;;;;;4.15;3.40;;;;;;;;;;4741032;30;20087;-88
2023/03/12 03:23:09;;;;;;;6.43;3.35;;;;;;;;;;4741579;30;20113;-89
2023/03/12 03:25:35;;;;;;;5.18;3.55;;;;;;;;;;4755715;30;20087;-90
2023/03/12 03:28:01;;;;;;;3.83;3.17;;;;;;;;;;4756063;30;20068;-89
2023/03/12 03:30:27;;;;;;;8.15;4.18;;;;;;;;;;4755862;30;20052;-90
2023/03/12 03:32:53;;;;;;;6.72;3.50;;;;;;;;;;4741475;30;20067;-90
2023/03/12 03:35:21;;;;;;;7.60;4.05;;;;;;;;;;4759681;30;20414;-91
2023/03/12 03:37:47;;;;;;;7.32;4.05;;;;;;;;;;4742269;30;20466;-90
2023/03/12 03:40:13;;;;;;;7.75;3.78;;;;;;;;;;4741507;30;20056;-89
2023/03/12 03:42:39;;;;;;;4.65;3.65;;;;;;;;;;4755884;30;20055;-89
2023/03/12 03:45:06;;;;;;;10.57;4.18;;;;;;;;;;4741290;30;20056;-89
2023/03/12 03:47:32;;;;;;;6.18;3.25;;;;;;;;;;4755846;30;20060;-88
2023/03/12 03:49:58;;;;;;;5.82;3.60;;;;;;;;;;4755449;30;20063;-89
2023/03/12 03:52:24;;;;;;;5.43;3.90;;;;;;;;;;4755540;30;20052;-90
2023/03/12 03:54:52;;;;;;;4.88;3.22;;;;;;;;;;4740743;30;20146;-88
2023/03/12 03:57:18;;;;;;;8.50;4.20;;;;;;;;;;4741146;30;20056;-89
2023/03/12 03:59:44;;;;;;;4.18;3.58;;;;;;;;;;4740950;30;20078;-89
2023/03/12 04:02:10;;;;;;;5.18;3.90;;;;;;;;;;4754933;30;20480;-89
2023/03/12 04:04:36;;;;;;;4.30;3.58;;;;;;;;;;4755197;30;20146;-88
2023/03/12 04:07:02;;;;;;;6.28;4.00;;;;;;;;;;4740834;30;20105;-90
2023/03/12 04:09:29;;;;;;;11.75;3.65;;;;;;;;;;4740477;30;20060;-89
2023/03/12 04:11:55;;;;;;;5.97;4.20;;;;;;;;;;4755484;30;20071;-87
2023/03/12 04:14:21;;;;;;;6.80;4.43;;;;;;;;;;4755196;30;20506;-88
2023/03/12 04:16:47;;;;;;;5.53;4.20;;;;;;;;;;4740490;30;20414;-87
2023/03/12 04:19:13;;;;;;;8.07;4.65;;;;;;;;;;4755113;30;20491;-88
2023/03/12 04:21:39;;;;;;;3.78;3.40;;;;;;;;;;4754731;30;20097;-88
2023/03/12 04:24:06;;;;;;;6.25;3.20;;;;;;;;;;4740439;30;20493;-88
2023/03/12 04:26:32;;;;;;;7.43;3.63;;;;;;;;;;4754737;30;20091;-88
2023/03/12 04:28:59;;;;;;;8.13;4.20;;;;;;;;;;4754840;30;20062;-88
2023/03/12 04:31:26;;;;;;;10.52;4.32;;;;;;;;;;4754687;30;20059;-89
2023/03/12 04:33:52;;;;;;;4.88;4.07;;;;;;;;;;4740251;30;20073;-89
2023/03/12 04:36:18;;;;;;;5.57;4.10;;;;;;;;;;4754265;30;20063;-89
2023/03/12 04:38:44;;;;;;;5.10;4.10;;;;;;;;;;4754572;30;20117;-88
2023/03/12 04:41:14;;;;;;;9.95;4.68;;;;;;;;;;4754637;30;20154;-88
2023/03/12 04:43:40;;;;;;;7.45;4.00;;;;;;;;;;4754786;30;20055;-88
2023/03/12 04:46:07;;;;;;;9.07;4.53;;;;;;;;;;4754748;30;20099;-89
2023/03/12 04:48:33;;;;;;;5.55;4.65;;;;;;;;;;4754813;30;20055;-88
2023/03/12 04:50:59;;;;;;;8.30;4.53;;;;;;;;;;4754519;30;20434;-88
2023/03/12 04:53:25;;;;;;;6.28;3.92;;;;;;;;;;4740105;30;20138;-88
2023/03/12 04:55:51;;;;;;;6.00;4.10;;;;;;;;;;4739752;30;20055;-89
2023/03/12 04:58:17;;;;;;;5.40;3.40;;;;;;;;;;4754488;30;20177;-88
2023/03/12 05:00:44;;;;;;;6.90;4.10;;;;;;;;;;4754561;30;20086;-89
2023/03/12 05:03:10;;;;;;;7.32;4.00;;;;;;;;;;4754513;30;20060;-89
2023/03/12 05:05:36;;;;;;;10.00;3.90;;;;;;;;;;4754464;30;20056;-88
2023/03/12 05:08:03;;;;;;;6.30;4.60;;;;;;;;;;4739922;30;20502;-88
2023/03/12 05:10:29;;;;;;;10.25;4.32;;;;;;;;;;4758368;30;20087;-88
2023/03/12 05:12:55;;;;;;;6.32;4.68;;;;;;;;;;4761985;30;20457;-89
2023/03/12 05:15:21;;;;;;;5.40;4.00;;;;;;;;;;4759121;30;20052;-88
2023/03/12 05:17:47;;;;;;;5.00;3.35;;;;;;;;;;4757599;30;20150;-88
2023/03/12 05:20:13;;;;;;;4.95;4.10;;;;;;;;;;4757591;30;20064;-87
2023/03/12 05:22:39;;;;;;;6.00;3.35;;;;;;;;;;4756177;30;20059;-87
2023/03/12 05:25:06;;;;;;;6.55;4.05;;;;;;;;;;4754917;30;20059;-87
2023/03/12 05:27:32;;;;;;;4.93;4.03;;;;;;;;;;4754537;30;20149;-88
2023/03/12 05:29:58;;;;;;;10.32;4.32;;;;;;;;;;4739537;30;20495;-87
2023/03/12 05:32:24;;;;;;;7.10;3.67;;;;;;;;;;4754278;30;20056;-88
2023/03/12 05:34:50;;;;;;;5.05;4.20;;;;;;;;;;4754029;30;20062;-88
2023/03/12 05:37:16;;;;;;;7.57;3.65;;;;;;;;;;4739569;30;20067;-88
2023/03/12 05:39:45;;;;;;;9.57;5.03;;;;;;;;;;4739403;30;20062;-88
2023/03/12 05:42:15;;;;;;;6.00;4.22;;;;;;;;;;4754338;30;20068;-88
2023/03/12 05:44:41;;;;;;;9.50;4.85;;;;;;;;;;4754381;30;20449;-88
2023/03/12 05:47:08;;;;;;;8.02;4.60;;;;;;;;;;4754111;30;20421;-88
2023/03/12 05:49:34;;;;;;;6.43;3.47;;;;;;;;;;4756149;30;20561;-87
2023/03/12 05:52:00;;;;;;;5.22;4.60;;;;;;;;;;4757613;30;20056;-88
2023/03/12 05:54:26;;;;;;;4.55;3.78;;;;;;;;;;4757348;30;20578;-86
2023/03/12 05:56:52;;;;;;;6.15;4.10;;;;;;;;;;4757244;30;20066;-86
2023/03/12 05:59:18;;;;;;;9.73;5.32;;;;;;;;;;4757954;30;20105;-87
2023/03/12 06:01:44;;;;;;;6.38;4.05;;;;;;;;;;4742123;30;20061;-87
2023/03/12 06:04:10;;;;;;;5.93;3.85;;;;;;;;;;4757442;30;20139;-88
2023/03/12 06:06:37;;;;;;;6.25;4.55;;;;;;;;;;4758003;30;20059;-92
2023/03/12 06:09:04;;;;;;;13.57;4.97;;;;;;;;;;4757901;30;20048;-88
2023/03/12 06:11:31;;;;;;;5.63;4.10;;;;;;;;;;4758136;30;20056;-91
2023/03/12 06:13:57;;;;;;;6.53;4.18;;;;;;;;;;4757639;30;20144;-89
2023/03/12 06:16:25;;;;;;;7.78;4.32;;;;;;;;;;4758174;30;20080;-91
2023/03/12 06:18:55;;;;;;;5.60;4.35;;;;;;;;;;4758464;30;20446;-90
2023/03/12 06:21:22;;;;;;;5.28;4.55;;;;;;;;;;4758007;30;20133;-91
2023/03/12 06:23:48;;;;;;;8.20;4.30;;;;;;;;;;4757870;30;20048;-89
2023/03/12 06:26:15;;;;;;;7.78;4.32;;;;;;;;;;4757673;30;20055;-88
2023/03/12 06:28:41;;;;;;;11.38;4.95;;;;;;;;;;4757879;30;20063;-93
2023/03/12 06:31:08;;;;;;;9.50;6.05;;;;;;;;;;4757580;30;20052;-89
2023/03/12 06:33:34;;;;;;;9.60;4.40;;;;;;;;;;4757446;30;20063;-92
2023/03/12 06:36:01;;;;;;;6.72;4.70;;;;;;;;;;4757317;30;20414;-87
2023/03/12 06:38:28;;;;;;;6.68;4.53;;;;;;;;;;4757741;30;20102;-84
2023/03/12 06:40:55;;;;;;;10.90;4.97;;;;;;;;;;4743150;30;20573;-88
2023/03/12 06:43:21;;;;;;;6.90;4.13;;;;;;;;;;4757168;30;20514;-88
2023/03/12 06:45:47;;;;;;;6.60;4.53;;;;;;;;;;4742842;30;20482;-84
2023/03/12 06:48:13;;;;;;;7.05;4.88;;;;;;;;;;4772000;30;20082;-87
2023/03/12 06:50:39;;;;;;;5.25;4.07;;;;;;;;;;4757532;30;20102;-86
2023/03/12 06:53:05;;;;;;;7.10;5.07;;;;;;;;;;4757147;30;20056;-86
2023/03/12 06:55:31;;;;;;;5.20;4.70;;;;;;;;;;4757053;30;20127;-86
2023/03/12 06:57:57;;;;;;;10.68;5.63;;;;;;;;;;4757093;30;20450;-89
2023/03/12 07:00:23;;;;;;;6.80;5.25;;;;;;;;;;4756997;30;20059;-86
2023/03/12 07:02:49;;;;;;;9.90;5.10;;;;;;;;;;4741961;30;20064;-92
2023/03/12 07:05:16;;;;;;;10.50;5.05;;;;;;;;;;4742255;30;20138;-88
2023/03/12 07:07:42;;;;;;;9.32;5.57;;;;;;;;;;4757223;30;20170;-96
2023/03/12 07:10:09;;;;;;;9.77;5.40;;;;;;;;;;4757534;30;20059;-96
2023/03/12 07:12:35;;;;;;;9.77;5.47;;;;;;;;;;4757491;30;20128;-94
2023/03/12 07:15:01;;;;;;;10.23;6.60;;;;;;;;;;4743365;30;20063;-86
2023/03/12 07:17:27;;;;;;;16.02;6.10;;;;;;;;;;4762737;30;20059;-85
2023/03/12 07:19:54;;;;;;;9.98;5.35;;;;;;;;;;4766498;30;20068;-83
2023/03/12 07:22:20;;;;;;;10.40;6.75;;;;;;;;;;4748763;30;20051;-84
2023/03/12 07:24:46;;;;;;;9.10;6.68;;;;;;;;;;4760368;30;20059;-84
2023/03/12 07:27:12;;;;;;;13.68;6.70;;;;;;;;;;4764316;30;20092;-85
2023/03/12 07:29:38;;;;;;;9.32;6.53;;;;;;;;;;4748895;30;20051;-86
2023/03/12 07:32:04;;;;;;;9.05;6.78;;;;;;;;;;4755969;30;20060;-85
2023/03/12 07:34:30;;;;;;;11.38;6.95;;;;;;;;;;4741562;30;20144;-87
2023/03/12 07:36:56;;;;;;;8.65;6.82;;;;;;;;;;4755893;30;20062;-87
2023/03/12 07:39:22;;;;;;;16.85;7.53;;;;;;;;;;4741120;30;20134;-87
2023/03/12 07:41:49;;;;;;;12.07;7.40;;;;;;;;;;4741089;30;20059;-88
2023/03/12 07:44:15;;;;;;;8.98;7.07;;;;;;;;;;4755790;30;20056;-89
2023/03/12 07:46:41;;;;;;;8.73;7.22;;;;;;;;;;4755640;30;20091;-87
2023/03/12 07:49:07;;;;;;;8.43;7.00;;;;;;;;;;4740705;30;20142;-86
2023/03/12 07:51:33;;;;;;;9.50;6.60;;;;;;;;;;4755769;30;20059;-86
2023/03/12 07:53:59;;;;;;;11.55;7.63;;;;;;;;;;4755481;30;20150;-87
2023/03/12 07:56:25;;;;;;;10.90;7.10;;;;;;;;;;4755257;30;20063;-87
2023/03/12 07:58:51;;;;;;;10.63;7.53;;;;;;;;;;4755488;30;20506;-88
2023/03/12 08:01:17;;;;;;;17.88;7.82;;;;;;;;;;4755447;30;20539;-88
2023/03/12 08:03:43;;;;;;;11.35;7.53;;;;;;;;;;4755533;30;20096;-89
2023/03/12 08:06:09;;;;;;;16.67;8.27;;;;;;;;;;4755626;30;20142;-88
2023/03/12 08:08:40;;;;;;;15.02;9.15;;;;;;;;;;4755488;30;20097;-87
2023/03/12 08:11:07;;;;;;;11.43;7.75;;;;;;;;;;4754992;30;20079;-88
2023/03/12 08:13:33;;;;;;;16.30;9.07;;;;;;;;;;4755257;30;20062;-88
2023/03/12 08:15:59;;;;;;;13.00;8.15;;;;;;;;;;4740891;30;20063;-88
2023/03/12 08:18:25;;;;;;;11.85;8.75;;;;;;;;;;4755679;30;20052;-87
2023/03/12 08:20:52;;;;;;;13.52;8.55;;;;;;;;;;4755347;30;20391;-88
2023/03/12 08:23:19;;;;;;;15.10;9.48;;;;;;;;;;4755276;30;20510;-87
2023/03/12 08:25:46;;;;;;;12.07;8.30;;;;;;;;;;4741315;30;20052;-87
2023/03/12 08:28:12;;;;;;;12.98;8.80;;;;;;;;;;4755508;30;20129;-87
2023/03/12 08:30:38;;;;;;;18.25;9.40;;;;;;;;;;4756124;30;20052;-88
2023/03/12 08:33:04;;;;;;;14.80;8.98;;;;;;;;;;4770613;30;20060;-87
2023/03/12 08:35:30;;;;;;;10.05;8.05;;;;;;;;;;4754806;30;20060;-86
2023/03/12 08:37:56;;;;;;;10.70;8.60;;;;;;;;;;4754838;30;20143;-87
2023/03/12 08:40:23;;;;;;;9.85;8.80;;;;;;;;;;4755469;30;20052;-87
2023/03/12 08:42:49;;;;;;;12.88;7.65;;;;;;;;;;4755036;30;20063;-86
2023/03/12 08:45:16;;;;;;;15.65;9.18;;;;;;;;;;4740808;30;20090;-87
2023/03/12 08:47:43;;;;;;;10.52;8.05;;;;;;;;;;4754972;30;20056;-86
2023/03/12 08:50:11;;;;;;;14.48;8.43;;;;;;;;;;4770043;30;20054;-87
2023/03/12 08:52:37;;;;;;;11.68;8.27;;;;;;;;;;4756085;30;20070;-86
2023/03/12 08:55:04;;;;;;;10.45;8.10;;;;;;;;;;4740550;30;20077;-86
2023/03/12 08:57:31;;;;;;;11.65;7.78;;;;;;;;;;4755293;30;20509;-87
2023/03/12 08:59:57;;;;;;;14.60;9.63;;;;;;;;;;4755904;30;20052;-86
2023/03/12 09:02:23;;;;;;;9.77;7.50;;;;;;;;;;4755135;30;20064;-87
2023/03/12 09:04:50;;;;;;;11.95;7.47;;;;;;;;;;4754190;30;20407;-86
2023/03/12 09:07:18;;;;;;;12.13;8.18;;;;;;;;;;4754419;30;20055;-86
2023/03/12 09:09:45;;;;;;;11.30;5.88;;;;;;;;;;4740092;30;20061;-86
2023/03/12 09:12:11;;;;;;;8.23;7.05;;;;;;;;;;4754592;30;20082;-86
2023/03/12 09:14:37;;;;;;;11.07;6.20;;;;;;;;;;4754602;30;20142;-86
2023/03/12 09:17:03;;;;;;;13.77;7.93;;;;;;;;;;4770149;30;20517;-86
2023/03/12 09:19:30;;;;;;;9.48;7.60;;;;;;;;;;4740056;30;20064;-86
2023/03/12 09:21:56;;;;;;;19.75;8.75;;;;;;;;;;4768854;30;20063;-86
2023/03/12 09:24:22;;;;;;;9.82;6.88;;;;;;;;;;4754906;30;20052;-86
2023/03/12 09:26:48;;;;;;;8.43;6.13;;;;;;;;;;4770389;30;20063;-86
2023/03/12 09:29:14;;;;;;;11.32;7.55;;;;;;;;;;4754299;30;20409;-86
2023/03/12 09:31:41;;;;;;;10.35;7.38;;;;;;;;;;4754270;30;20124;-87
2023/03/12 09:34:07;;;;;;;10.75;6.25;;;;;;;;;;4754274;30;20056;-86
2023/03/12 09:36:33;;;;;;;9.90;6.90;;;;;;;;;;4754352;30;20071;-86
2023/03/12 09:39:00;;;;;;;9.77;6.82;;;;;;;;;;4755035;30;20058;-86
2023/03/12 09:41:28;;;;;;;9.50;7.35;;;;;;;;;;4769087;30;20514;-87
2023/03/12 09:44:00;;;;;;;12.88;6.82;;;;;;;;;;4754162;30;20055;-87
2023/03/12 09:46:46;;;;;;;13.02;7.05;;;;;;;;;;4755132;30;20085;-86
2023/03/12 09:49:17;;;;;;;12.73;7.50;;;;;;;;;;4756246;30;20059;-87
2023/03/12 09:51:48;;;;;;;9.50;7.63;;;;;;;;;;4756285;30;20490;-87
2023/03/12 09:54:21;;;;;;;10.38;8.20;;;;;;;;;;4756275;30;20110;-87
2023/03/12 09:56:48;;;;;;;11.80;9.25;;;;;;;;;;4755739;30;20059;-86
2023/03/12 09:59:14;;;;;;;11.85;7.07;;;;;;;;;;4756042;30;20052;-87
2023/03/12 10:01:43;;;;;;;7.40;6.70;;;;;;;;;;4755202;30;20055;-86
2023/03/12 10:04:09;;;;;;;9.50;7.22;;;;;;;;;;4756052;30;20059;-86
2023/03/12 10:06:41;;;;;;;13.30;8.00;;;;;;;;;;4755732;30;20091;-86
2023/03/12 10:09:16;;;;;;;10.32;7.68;;;;;;;;;;4770203;30;20499;-85
2023/03/12 10:12:01;;;;;;;10.48;7.05;;;;;;;;;;4755687;30;20145;-86
2023/03/12 10:14:36;;;;;;;7.80;6.28;;;;;;;;;;4756170;30;20059;-86
2023/03/12 10:17:09;;;;;;;8.95;7.13;;;;;;;;;;4756028;30;20070;-86
2023/03/12 10:19:40;;;;;;;8.88;7.88;;;;;;;;;;4756171;30;20058;-86
2023/03/12 10:22:19;;;;;;;10.15;7.50;;;;;;;;;;4771234;30;20062;-86
2023/03/12 10:24:51;;;;;;;11.18;6.78;;;;;;;;;;4755839;30;20056;-86
2023/03/12 10:27:18;;;;;;;11.30;7.13;;;;;;;;;;4757405;30;20067;-86
2023/03/12 10:29:45;;;;;;;9.77;7.18;;;;;;;;;;4757312;30;20067;-86
2023/03/12 10:32:17;;;;;;;10.25;7.25;;;;;;;;;;4756885;30;20058;-86
2023/03/12 10:34:48;;;;;;;7.93;7.13;;;;;;;;;;4757692;30;20099;-86
2023/03/12 10:37:23;;;;;;;10.98;7.60;;;;;;;;;;4773492;30;20056;-86
2023/03/12 10:39:50;;;;;;;10.18;7.68;;;;;;;;;;4758028;30;20085;-85
2023/03/12 10:42:20;;;;;;;14.10;7.20;;;;;;;;;;4756743;30;20051;-85
2023/03/12 10:44:48;;;;;;;11.50;7.80;;;;;;;;;;4772106;30;20064;-85
2023/03/12 10:47:17;;;;;;;8.48;6.68;;;;;;;;;;4773023;30;20131;-85
2023/03/12 10:49:49;;;;;;;13.75;7.82;;;;;;;;;;4757306;30;20091;-84
2023/03/12 10:52:16;;;;;;;13.95;7.75;;;;;;;;;;4756700;30;20063;-84
2023/03/12 10:54:43;;;;;;;9.20;7.25;;;;;;;;;;4756292;30;20068;-84
2023/03/12 10:57:10;;;;;;;13.93;8.25;;;;;;;;;;4756910;30;20091;-85
2023/03/12 10:59:37;;;;;;;9.40;8.40;;;;;;;;;;4756717;30;20044;-85
2023/03/12 11:02:23;;;;;;;15.23;7.45;;;;;;;;;;4770904;30;20062;-84
2023/03/12 11:04:50;;;;;;;13.05;7.88;;;;;;;;;;4757088;30;20064;-84
2023/03/12 11:07:22;;;;;;;11.20;8.00;;;;;;;;;;4775421;30;20068;-84
2023/03/12 11:10:03;;;;;;;11.00;8.45;;;;;;;;;;4757540;30;20400;-84
2023/03/12 11:12:29;;;;;;;11.50;8.38;;;;;;;;;;4760656;30;20059;-85
2023/03/12 11:14:56;;;;;;;11.05;8.48;;;;;;;;;;4760619;30;20051;-85
2023/03/12 11:17:26;;;;;;;10.35;8.10;;;;;;;;;;4759352;30;20064;-84
2023/03/12 11:19:53;;;;;;;18.65;8.43;;;;;;;;;;4760739;30;20146;-84
2023/03/12 11:22:30;;;;;;;16.27;9.52;;;;;;;;;;4758040;30;20091;-85
2023/03/12 11:25:06;;;;;;;15.10;8.55;;;;;;;;;;4756212;30;20052;-84
2023/03/12 11:27:37;;;;;;;15.45;8.80;;;;;;;;;;4757851;30;20064;-90
2023/03/12 11:30:05;;;;;;;15.93;8.95;;;;;;;;;;4757488;30;20055;-90
2023/03/12 11:32:36;;;;;;;19.42;9.45;;;;;;;;;;4772242;30;20640;-89
2023/03/12 11:35:03;;;;;;;16.52;10.27;;;;;;;;;;4772967;30;20131;-91
2023/03/12 11:37:41;;;;;;;12.25;9.20;;;;;;;;;;4758173;30;20051;-89
2023/03/12 11:40:10;;;;;;;14.60;8.68;;;;;;;;;;4758056;30;20056;-92
2023/03/12 11:42:55;;;;;;;10.73;8.38;;;;;;;;;;4758407;30;20063;-89
2023/03/12 11:45:46;;;;;;;12.75;9.07;;;;;;;;;;4774430;30;20109;-91
2023/03/12 11:48:22;;;;;;;17.02;9.55;;;;;;;;;;4758336;30;20510;-93
2023/03/12 11:51:06;;;;;;;13.30;8.25;;;;;;;;;;4758281;30;20060;-90
2023/03/12 11:53:42;;;;;;;13.43;8.82;;;;;;;;;;4758207;30;20062;-91
2023/03/12 11:56:24;;;;;;;17.27;9.88;;;;;;;;;;4758103;30;20090;-92
2023/03/12 11:58:53;;;;;;;19.30;10.75;;;;;;;;;;4757986;30;20063;-93
2023/03/12 12:01:40;;;;;;;11.63;8.85;;;4.00;99.90;;;;;;4758227;30;20090;-89
2023/03/12 12:04:13;;;;;;;10.98;7.53;;;;;;;;;;4757911;30;20060;-88
2023/03/12 12:06:50;;;;;;;12.90;8.65;;;;;;;;;;4758706;30;20066;-88
2023/03/12 12:09:16;;;;;;;10.35;8.45;;;;;;;;;;4774883;30;20059;-90
2023/03/12 12:11:45;;;;;;;15.07;9.18;;;;;;;;;;4759112;30;20060;-92
2023/03/12 12:14:15;;;;;;;12.90;9.73;;;;;;;;;;4759377;30;20487;-91
2023/03/12 12:16:59;;;;;;;13.93;9.35;;;;;;;;;;4760296;30;20048;-91
2023/03/12 12:20:08;;;;;;;13.30;8.32;;;;;;;;;;4759361;30;20067;-90
2023/03/12 12:22:53;;;;;;;15.95;9.73;;;;;;;;;;4689213;30;20076;-88
2023/03/12 12:25:25;;;;;;;13.27;8.65;;;;;;;;;;4703633;30;20061;-92
2023/03/12 12:27:57;;;;;;;15.88;9.35;;;;;;;;;;4745546;30;20060;-92
2023/03/12 12:30:40;;;;;;;15.13;10.20;;;;;;;;;;4757794;30;20484;-90
2023/03/12 12:33:16;;;;;;;15.20;9.82;;;;;;;;;;4757242;30;20107;-91
2023/03/12 12:35:42;;;;;;;14.73;8.38;;;;;;;;;;4756854;30;20064;-91
2023/03/12 12:38:18;;;;;;;15.20;8.30;;;;;;;;;;4756112;30;20047;-91
2023/03/12 12:40:49;;;;;;;18.85;10.10;;;;;;;;;;4756617;30;20060;-91
2023/03/12 12:43:37;;;;;;;18.98;9.00;;;;;;;;;;4756235;30;20510;-88
2023/03/12 12:46:06;;;;;;;20.92;8.93;;;;;;;;;;4755916;30;20151;-90
2023/03/12 12:48:32;;;;;;;19.27;10.10;;;;;;;;;;4756201;30;20182;-89
2023/03/12 12:50:59;;;;;;;20.65;9.38;;;;;;;;;;4756591;30;20148;-89
2023/03/12 12:53:27;;;;;;;20.02;9.18;;;;;;;;;;4741566;30;20060;-85
2023/03/12 12:56:13;;;;;;;14.82;8.77;;;;;;;;;;4756002;30;20399;-88
2023/03/12 12:58:45;;;;;;;11.45;8.45;;;;;;;;;;4755774;30;20391;-87
2023/03/12 13:01:13;;;;;;;26.70;9.38;;;;;;;;;;4755193;30;20430;-87
2023/03/12 13:03:39;;;;;;;22.63;10.60;;;;;;;;;;4755357;30;20068;-89
2023/03/12 13:06:06;;;;;;;16.55;9.63;;;;;;;;;;4741471;30;20414;-91
2023/03/12 13:08:32;;;;;;;18.70;9.35;;;;;;;;;;4770607;30;20055;-89
2023/03/12 13:10:58;;;;;;;18.88;7.63;;;;;;;;;;4755980;30;20052;-92
2023/03/12 13:13:24;;;;;;;16.73;9.13;;;;;;;;;;4770761;30;20059;-90
2023/03/12 13:15:51;;;;;;;24.00;9.65;;;;;;;;;;4755655;30;20059;-90
2023/03/12 13:18:22;;;;;;;26.60;9.05;;;;;;;;;;4741719;30;20060;-89
2023/03/12 13:20:53;;;;;;;23.13;9.25;;;;;;;;;;4772420;30;20081;-91
2023/03/12 13:23:23;;;;;;;36.67;11.30;;;;;;;;;;4756649;30;20056;-88
2023/03/12 13:26:03;;;;;;;17.73;8.52;;;;;;;;;;4756535;30;20059;-89
2023/03/12 13:28:34;;;;;;;24.58;9.88;;;;;;;;;;4756872;30;20532;-90
2023/03/12 13:31:19;;;;;;;28.50;9.27;;;;;;;;;;4756802;30;20150;-91
2023/03/12 13:33:48;;;;;;;26.95;8.63;;;;;;;;;;4757926;30;20102;-88
2023/03/12 13:36:22;;;;;;;21.40;9.00;;;;;;;;;;4757435;30;20055;-89
2023/03/12 13:38:48;;;;;;;;;;;;;;;;;;4758678;30;20067;-91
2023/03/12 13:41:29;;;;;;;16.90;5.70;;;;;;;;;;4756194;30;19926;-87
2023/03/12 13:43:55;;;;;;;23.10;7.47;;;;;;;;;;4754549;30;20513;-90
2023/03/12 13:46:27;;;;;;;29.20;6.55;;;;;;;;;;4739818;30;20422;-86
2023/03/12 13:48:57;;;;;;;20.92;7.20;;;;;;;;;;4754599;30;20139;-86
2023/03/12 13:51:24;;;;;;;25.30;7.47;;;;;;;;;;4753748;30;20060;-85
2023/03/12 13:53:53;;;;;;;17.10;6.43;;;;;;;;;;4754105;30;20508;-85
2023/03/12 13:56:20;;;;;;;22.88;6.75;;;;;;;;;;4754232;30;20142;-85
2023/03/12 13:58:54;;;;;;;30.80;6.68;;;;;;;;;;4753906;30;20573;-85
2023/03/12 14:01:21;;;;;;;28.10;6.38;;;;;;;;;;4754029;30;20395;-85
2023/03/12 14:03:50;;;;;;;20.88;6.30;;;;;;;;;;4769787;30;20059;-85
2023/03/12 14:06:21;;;;;;;21.42;6.18;;;;;;;;;;4754496;30;20047;-85
2023/03/12 14:09:06;;;;;;;25.42;6.63;;;;;;;;;;4754802;30;20104;-86
2023/03/12 14:11:40;;;;;;;27.20;7.10;;;;;;;;;;4773293;30;20056;-85
2023/03/12 14:14:25;;;;;;;35.20;7.15;;;;;;;;;;4773502;30;20511;-86
2023/03/12 14:16:53;;;;;;;21.55;5.28;;;;;;;;;;4771942;30;20067;-85
2023/03/12 14:19:27;;;;;;;24.83;7.47;;;;;;;;;;4757143;30;20095;-85
2023/03/12 14:21:54;;;;;;;32.75;6.45;;;;;;;;;;4773286;30;20055;-85
2023/03/12 14:24:24;;;;;;;16.63;6.45;;;;;;;;;;4757491;30;20059;-85
2023/03/12 14:26:50;;;;;;;21.67;6.75;;;;;;;;;;4773060;30;20474;-85
2023/03/12 14:29:23;;;;;;;24.60;7.57;;;;;;;;;;4757669;30;20056;-85
2023/03/12 14:31:49;;;;;;;25.73;6.15;;;;;;;;;;4757110;30;20051;-85
2023/03/12 14:34:20;;;;;;;31.10;7.15;;;;;;;;;;4773630;30;20071;-85
2023/03/12 14:37:05;;;;;;;30.00;6.60;;;8.80;99.90;;;;;;4757390;30;20052;-85
2023/03/12 14:39:36;;;;;;;24.85;5.45;;;;;;;;;;4757053;30;20048;-85
2023/03/12 14:42:04;;;;;;;21.83;6.32;;;;;;;;;;4772694;30;20113;-85
2023/03/12 14:44:31;;;;;;;24.17;6.70;;;;;;;;;;4756501;30;20506;-85